createdAt,value
2019-05-17T00:00:49.794Z,88.83
2019-05-17T00:03:21.826Z,95.37
2019-05-17T00:05:52.265Z,93.23
2019-05-17T00:08:31.965Z,103.03
2019-05-17T00:10:56.937Z,95.77
2019-05-17T00:13:27.029Z,97.07
2019-05-17T00:15:57.474Z,104.07
2019-05-17T00:18:27.911Z,100.70
2019-05-17T00:20:58.357Z,105.10
2019-05-17T00:23:29.762Z,161.47
2019-05-17T00:26:00.262Z,146.87
2019-05-17T00:28:30.732Z,188.63
2019-05-17T00:31:01.182Z,127.83
2019-05-17T00:33:31.607Z,147.57
2019-05-17T00:36:02.052Z,138.33
2019-05-17T00:38:45.566Z,157.90
2019-05-17T00:41:06.912Z,131.83
2019-05-17T00:43:37.014Z,123.03
2019-05-17T00:46:07.483Z,110.33
2019-05-17T00:48:37.891Z,93.20
2019-05-17T00:51:09.991Z,128.67
2019-05-17T00:53:40.478Z,84.43
2019-05-17T00:56:10.918Z,100.00
2019-05-17T00:58:41.326Z,111.03
2019-05-17T01:01:11.775Z,120.53
2019-05-17T01:03:42.183Z,105.97
2019-05-17T01:06:12.625Z,133.27
2019-05-17T01:08:43.021Z,130.07
2019-05-17T01:11:13.466Z,172.97
2019-05-17T01:13:44.012Z,103.83
2019-05-17T01:16:16.540Z,98.23
2019-05-17T01:18:47.038Z,105.23
2019-05-17T01:21:18.875Z,108.17
2019-05-17T01:23:49.280Z,239.47
2019-05-17T01:26:19.718Z,112.77
2019-05-17T01:28:50.163Z,101.13
2019-05-17T01:31:20.607Z,178.70
2019-05-17T01:33:52.014Z,183.30
2019-05-17T01:36:22.409Z,103.87
2019-05-17T01:38:52.857Z,161.57
2019-05-17T01:41:23.262Z,152.47
2019-05-17T01:43:53.705Z,106.20
2019-05-17T01:46:26.384Z,118.63
2019-05-17T01:48:57.711Z,126.33
2019-05-17T01:51:28.320Z,102.90
2019-05-17T01:53:58.758Z,178.10
2019-05-17T01:56:29.155Z,173.73
2019-05-17T01:58:59.597Z,129.37
2019-05-17T02:01:29.992Z,128.77
2019-05-17T02:04:00.441Z,169.67
2019-05-17T02:06:30.846Z,162.23
2019-05-17T02:09:02.297Z,125.93
2019-05-17T02:11:33.670Z,150.13
2019-05-17T02:14:04.193Z,114.77
2019-05-17T02:16:37.610Z,117.83
2019-05-17T02:19:07.871Z,135.27
2019-05-17T02:21:39.148Z,137.23
2019-05-17T02:24:09.772Z,136.27
2019-05-17T02:26:40.176Z,219.57
2019-05-17T02:29:12.027Z,116.37
2019-05-17T02:31:43.494Z,119.87
2019-05-17T02:34:14.493Z,164.30
2019-05-17T02:36:44.897Z,151.43
2019-05-17T02:39:15.423Z,184.67
2019-05-17T02:41:45.840Z,136.47
2019-05-17T02:44:16.295Z,152.17
2019-05-17T02:46:46.775Z,149.50
2019-05-17T02:49:17.491Z,127.00
2019-05-17T02:51:48.141Z,153.13
2019-05-17T02:54:18.581Z,131.77
2019-05-17T02:56:48.982Z,153.83
2019-05-17T02:59:19.503Z,203.27
2019-05-17T03:01:52.765Z,208.90
2019-05-17T03:04:23.647Z,166.07
2019-05-17T03:06:54.238Z,160.47
2019-05-17T03:09:24.752Z,178.60
2019-05-17T03:11:57.092Z,205.63
2019-05-17T03:14:27.298Z,200.23
2019-05-17T03:16:57.694Z,174.30
2019-05-17T03:19:28.141Z,186.27
2019-05-17T03:21:58.537Z,152.83
2019-05-17T03:24:28.982Z,144.17
2019-05-17T03:26:59.384Z,166.17
2019-05-17T03:29:33.232Z,176.07
2019-05-17T03:32:08.009Z,158.27
2019-05-17T03:34:36.868Z,201.03
2019-05-17T03:37:07.683Z,192.30
2019-05-17T03:39:38.546Z,161.10
2019-05-17T03:42:08.959Z,167.87
2019-05-17T03:44:39.573Z,182.50
2019-05-17T03:47:12.914Z,164.10
2019-05-17T03:49:43.711Z,145.07
2019-05-17T03:52:14.345Z,163.60
2019-05-17T03:54:44.928Z,149.00
2019-05-17T03:57:15.318Z,174.17
2019-05-17T03:59:45.830Z,160.83
2019-05-17T04:02:16.242Z,170.63
2019-05-17T04:04:46.752Z,161.83
2019-05-17T04:07:17.159Z,145.17
2019-05-17T04:09:47.671Z,156.13
2019-05-17T04:12:18.103Z,174.33
2019-05-17T04:14:48.546Z,145.43
2019-05-17T04:17:22.762Z,142.07
2019-05-17T04:19:53.243Z,126.63
2019-05-17T04:22:24.150Z,140.20
2019-05-17T04:24:54.597Z,112.23
2019-05-17T04:27:25.025Z,117.87
2019-05-17T04:29:55.471Z,118.77
2019-05-17T04:32:25.878Z,115.97
2019-05-17T04:34:56.313Z,127.23
2019-05-17T04:37:26.719Z,115.83
2019-05-17T04:39:57.332Z,117.57
2019-05-17T04:42:27.736Z,114.43
2019-05-17T04:44:58.175Z,110.80
2019-05-17T04:47:28.570Z,119.03
2019-05-17T04:49:59.032Z,114.30
2019-05-17T04:52:29.503Z,116.00
2019-05-17T04:55:03.713Z,97.23
2019-05-17T04:57:32.581Z,109.37
2019-05-17T05:00:04.337Z,114.70
2019-05-17T05:02:35.058Z,106.73
2019-05-17T05:05:06.642Z,96.60
2019-05-17T05:07:37.087Z,106.47
2019-05-17T05:10:08.059Z,114.83
2019-05-17T05:12:38.497Z,106.90
2019-05-17T05:15:12.038Z,122.63
2019-05-17T05:17:42.618Z,133.73
2019-05-17T05:20:14.410Z,137.27
2019-05-17T05:22:44.866Z,131.63
2019-05-17T05:25:15.410Z,126.83
2019-05-17T05:27:45.878Z,122.17
2019-05-17T05:30:17.914Z,108.50
2019-05-17T05:32:48.352Z,114.23
2019-05-17T05:35:19.068Z,108.23
2019-05-17T05:37:49.521Z,107.97
2019-05-17T05:40:21.424Z,111.83
2019-05-17T05:42:51.941Z,110.40
2019-05-17T05:45:23.385Z,98.80
2019-05-17T05:47:53.827Z,93.13
2019-05-17T05:50:24.229Z,96.80
2019-05-17T05:52:54.661Z,96.97
2019-05-17T05:55:25.074Z,82.07
2019-05-17T05:57:55.510Z,97.83
2019-05-17T06:00:27.616Z,102.60
2019-05-17T06:02:58.074Z,92.03
2019-05-17T06:05:29.641Z,86.10
2019-05-17T06:08:00.086Z,85.87
2019-05-17T06:10:32.396Z,88.03
2019-05-17T06:13:03.319Z,84.43
2019-05-17T06:15:33.770Z,86.37
2019-05-17T06:18:04.224Z,85.37
2019-05-17T06:20:34.690Z,101.73
2019-05-17T06:23:05.133Z,90.93
2019-05-17T06:25:35.541Z,97.47
2019-05-17T06:28:05.981Z,98.93
2019-05-17T06:30:36.388Z,95.87
2019-05-17T06:33:06.898Z,99.90
2019-05-17T06:35:37.293Z,101.97
2019-05-17T06:38:07.755Z,146.33
2019-05-17T06:40:38.306Z,125.40
2019-05-17T06:43:12.820Z,95.07
2019-05-17T06:45:43.039Z,171.23
2019-05-17T06:48:13.482Z,107.13
2019-05-17T06:50:43.882Z,93.53
2019-05-17T06:53:15.466Z,91.10
2019-05-17T06:55:46.088Z,71.87
2019-05-17T06:58:16.535Z,73.53
2019-05-17T07:00:46.942Z,75.27
2019-05-17T07:03:19.784Z,69.43
2019-05-17T07:05:51.247Z,69.90
2019-05-17T07:08:21.690Z,53.27
2019-05-17T07:10:52.097Z,64.70
2019-05-17T07:13:22.530Z,80.30
2019-05-17T07:15:52.935Z,69.40
2019-05-17T07:18:23.377Z,64.20
2019-05-17T07:20:53.768Z,67.23
2019-05-17T07:23:24.218Z,61.37
2019-05-17T07:25:54.630Z,63.67
2019-05-17T07:28:25.070Z,50.63
2019-05-17T07:30:55.467Z,47.87
2019-05-17T07:33:25.909Z,47.27
2019-05-17T07:35:56.378Z,49.03
2019-05-17T07:38:30.037Z,42.20
2019-05-17T07:40:59.968Z,46.83
2019-05-17T07:43:30.560Z,45.23
2019-05-17T07:46:00.968Z,45.27
2019-05-17T07:48:31.628Z,46.77
2019-05-17T07:51:02.978Z,44.10
2019-05-17T07:53:33.426Z,46.13
2019-05-17T07:56:03.816Z,47.53
2019-05-17T07:58:34.264Z,48.53
2019-05-17T08:01:04.661Z,45.43
2019-05-17T08:03:35.246Z,45.53
2019-05-17T08:06:05.652Z,44.53
2019-05-17T08:08:36.167Z,50.73
2019-05-17T08:11:06.562Z,66.27
2019-05-17T08:13:36.997Z,43.07
2019-05-17T08:16:07.396Z,49.97
2019-05-17T08:18:40.104Z,39.60
2019-05-17T08:21:10.383Z,46.80
2019-05-17T08:23:41.978Z,72.40
2019-05-17T08:26:12.366Z,47.47
2019-05-17T08:28:42.888Z,43.07
2019-05-17T08:31:13.379Z,33.93
2019-05-17T08:33:43.930Z,32.27
2019-05-17T08:36:15.416Z,30.20
2019-05-17T08:38:45.885Z,30.77
2019-05-17T08:41:16.280Z,35.83
2019-05-17T08:43:47.249Z,49.87
2019-05-17T08:46:19.769Z,45.73
2019-05-17T08:48:49.947Z,55.50
2019-05-17T08:51:20.928Z,50.47
2019-05-17T08:53:51.329Z,37.53
2019-05-17T08:56:21.772Z,35.57
2019-05-17T08:58:52.172Z,34.70
2019-05-17T09:01:22.611Z,32.73
2019-05-17T09:03:53.021Z,31.57
2019-05-17T09:06:23.516Z,28.13
2019-05-17T09:08:53.911Z,28.97
2019-05-17T09:11:24.355Z,25.73
2019-05-17T09:13:58.503Z,26.57
2019-05-17T09:16:30.561Z,25.00
2019-05-17T09:19:00.464Z,24.23
2019-05-17T09:21:31.554Z,24.57
2019-05-17T09:24:02.015Z,22.40
2019-05-17T09:26:32.454Z,21.60
2019-05-17T09:29:02.852Z,24.20
2019-05-17T09:31:33.286Z,25.03
2019-05-17T09:34:03.696Z,23.70
2019-05-17T09:36:34.143Z,24.47
2019-05-17T09:39:06.748Z,25.10
2019-05-17T09:41:39.602Z,21.97
2019-05-17T09:44:15.574Z,24.17
2019-05-17T09:46:41.513Z,23.30
2019-05-17T09:49:11.915Z,24.70
2019-05-17T09:51:42.358Z,23.93
2019-05-17T09:54:12.828Z,25.03
2019-05-17T09:56:43.285Z,26.53
2019-05-17T09:59:13.694Z,24.80
2019-05-17T10:01:44.126Z,24.47
2019-05-17T10:04:14.529Z,23.33
2019-05-17T10:06:44.966Z,22.90
2019-05-17T10:09:15.429Z,23.80
2019-05-17T10:11:45.869Z,21.63
2019-05-17T10:14:25.763Z,22.37
2019-05-17T10:16:48.476Z,20.63
2019-05-17T10:19:21.878Z,19.50
2019-05-17T10:21:51.356Z,21.23
2019-05-17T10:24:34.950Z,24.90
2019-05-17T10:26:54.202Z,24.43
2019-05-17T10:29:24.610Z,23.50
2019-05-17T10:31:55.047Z,20.40
2019-05-17T10:34:25.444Z,26.47
2019-05-17T10:36:55.899Z,21.40
2019-05-17T10:39:26.297Z,23.17
2019-05-17T10:41:56.737Z,22.60
2019-05-17T10:44:41.038Z,28.23
2019-05-17T10:46:59.286Z,21.80
2019-05-17T10:49:29.821Z,20.90
2019-05-17T10:52:00.340Z,20.77
2019-05-17T10:54:30.734Z,21.80
2019-05-17T10:57:01.185Z,23.40
2019-05-17T10:59:31.647Z,28.13
2019-05-17T11:02:03.131Z,25.10
2019-05-17T11:04:33.657Z,24.03
2019-05-17T11:07:04.327Z,24.87
2019-05-17T11:09:34.833Z,26.53
2019-05-17T11:12:05.279Z,25.93
2019-05-17T11:14:50.397Z,27.93
2019-05-17T11:17:07.816Z,25.30
2019-05-17T11:19:38.222Z,25.43
2019-05-17T11:22:08.677Z,22.40
2019-05-17T11:24:39.161Z,23.33
2019-05-17T11:27:09.684Z,21.70
2019-05-17T11:29:40.152Z,25.00
2019-05-17T11:32:10.588Z,26.70
2019-05-17T11:34:40.989Z,21.43
2019-05-17T11:37:11.426Z,36.10
2019-05-17T11:39:41.827Z,30.27
2019-05-17T11:42:12.261Z,33.07
2019-05-17T11:44:42.661Z,29.37
2019-05-17T11:47:13.099Z,27.80
2019-05-17T11:49:43.495Z,23.83
2019-05-17T11:52:13.942Z,25.80
2019-05-17T11:54:44.347Z,21.40
2019-05-17T11:57:14.801Z,25.30
2019-05-17T11:59:45.205Z,28.53
2019-05-17T12:02:15.721Z,25.57
2019-05-17T12:04:46.126Z,26.33
2019-05-17T12:07:16.638Z,25.83
2019-05-17T12:09:47.035Z,25.27
2019-05-17T12:12:17.469Z,24.83
2019-05-17T12:14:47.872Z,26.30
2019-05-17T12:17:18.516Z,27.07
2019-05-17T12:19:49.023Z,24.50
2019-05-17T12:22:19.454Z,24.70
2019-05-17T12:24:49.929Z,23.33
2019-05-17T12:27:20.364Z,25.80
2019-05-17T12:29:50.759Z,26.33
2019-05-17T12:32:21.361Z,36.67
2019-05-17T12:34:52.032Z,59.60
2019-05-17T12:37:22.573Z,26.03
2019-05-17T12:39:52.973Z,28.13
2019-05-17T12:42:23.419Z,31.73
2019-05-17T12:44:53.885Z,38.50
2019-05-17T12:47:24.395Z,30.33
2019-05-17T12:49:54.906Z,57.70
2019-05-17T12:52:25.358Z,26.97
2019-05-17T12:54:55.798Z,27.57
2019-05-17T12:57:26.235Z,29.90
2019-05-17T12:59:56.675Z,28.07
2019-05-17T13:02:27.210Z,31.37
2019-05-17T13:04:57.723Z,29.40
2019-05-17T13:07:31.220Z,31.43
2019-05-17T13:10:04.396Z,33.53
2019-05-17T13:12:35.842Z,28.33
2019-05-17T13:15:07.910Z,31.47
2019-05-17T13:17:38.358Z,35.23
2019-05-17T13:20:10.714Z,27.63
2019-05-17T13:22:41.244Z,26.13
2019-05-17T13:25:13.426Z,27.70
2019-05-17T13:27:43.982Z,28.53
2019-05-17T13:30:15.108Z,28.60
2019-05-17T13:32:45.584Z,27.83
2019-05-17T13:35:19.334Z,27.97
2019-05-17T13:37:50.058Z,26.33
2019-05-17T13:40:20.610Z,31.80
2019-05-17T13:42:51.014Z,28.47
2019-05-17T13:45:21.592Z,30.30
2019-05-17T13:47:52.255Z,29.37
2019-05-17T13:50:22.906Z,32.87
2019-05-17T13:52:55.776Z,31.93
2019-05-17T13:55:27.838Z,34.17
2019-05-17T13:57:58.244Z,34.00
2019-05-17T14:00:28.761Z,33.37
2019-05-17T14:02:59.259Z,30.93
2019-05-17T14:05:29.707Z,35.33
2019-05-17T14:08:00.123Z,30.30
2019-05-17T14:10:32.233Z,32.90
2019-05-17T14:13:02.674Z,28.73
2019-05-17T14:15:33.195Z,32.00
2019-05-17T14:18:03.629Z,29.63
2019-05-17T14:20:34.070Z,36.47
2019-05-17T14:23:04.470Z,32.87
2019-05-17T14:25:34.914Z,35.13
2019-05-17T14:28:05.471Z,32.37
2019-05-17T14:30:36.202Z,37.43
2019-05-17T14:33:06.608Z,33.50
2019-05-17T14:35:37.117Z,36.03
2019-05-17T14:38:07.649Z,30.17
2019-05-17T14:41:04.837Z,35.20
2019-05-17T14:43:10.321Z,35.17
2019-05-17T14:45:40.809Z,37.43
2019-05-17T14:48:11.222Z,36.33
2019-05-17T14:50:41.669Z,29.33
2019-05-17T14:53:13.897Z,28.83
2019-05-17T14:55:44.351Z,28.80
2019-05-17T14:58:14.753Z,32.33
2019-05-17T15:00:45.209Z,37.77
2019-05-17T15:03:16.111Z,37.87
2019-05-17T15:05:46.549Z,43.37
2019-05-17T15:08:17.004Z,39.63
2019-05-17T15:10:48.174Z,43.07
2019-05-17T15:13:20.024Z,40.10
2019-05-17T15:15:50.847Z,39.03
2019-05-17T15:18:21.259Z,40.17
2019-05-17T15:20:52.250Z,39.57
2019-05-17T15:23:22.652Z,35.53
2019-05-17T15:25:53.114Z,36.40
2019-05-17T15:28:23.509Z,37.60
2019-05-17T15:30:54.023Z,36.10
2019-05-17T15:33:24.425Z,35.40
2019-05-17T15:35:54.937Z,29.70
2019-05-17T15:38:25.331Z,26.70
2019-05-17T15:40:55.818Z,27.80
2019-05-17T15:43:26.221Z,26.13
2019-05-17T15:45:56.668Z,25.33
2019-05-17T15:48:28.031Z,26.37
2019-05-17T15:50:58.567Z,22.80
2019-05-17T15:53:28.974Z,20.67
2019-05-17T15:55:59.418Z,26.60
2019-05-17T15:58:29.829Z,16.60
2019-05-17T16:01:00.469Z,17.97
2019-05-17T16:03:30.952Z,18.80
2019-05-17T16:06:01.393Z,20.67
2019-05-17T16:08:31.879Z,16.73
2019-05-17T16:11:02.332Z,19.07
2019-05-17T16:13:34.008Z,19.23
2019-05-17T16:16:04.648Z,20.03
2019-05-17T16:18:35.107Z,20.33
2019-05-17T16:21:05.642Z,18.37
2019-05-17T16:23:36.306Z,18.97
2019-05-17T16:26:06.831Z,17.87
2019-05-17T16:28:37.276Z,19.67
2019-05-17T16:31:07.717Z,19.00
2019-05-17T16:33:38.139Z,17.30
2019-05-17T16:36:08.574Z,21.57
2019-05-17T16:38:38.965Z,24.47
2019-05-17T16:41:09.486Z,24.00
2019-05-17T16:43:39.880Z,28.10
2019-05-17T16:46:10.322Z,23.43
2019-05-17T16:48:40.714Z,16.13
2019-05-17T16:51:11.225Z,18.40
2019-05-17T16:53:41.620Z,18.13
2019-05-17T16:56:12.126Z,18.87
2019-05-17T16:58:42.518Z,20.27
2019-05-17T17:01:12.954Z,22.30
2019-05-17T17:03:44.781Z,19.93
2019-05-17T17:06:15.822Z,20.30
2019-05-17T17:08:46.224Z,19.47
2019-05-17T17:11:16.781Z,19.60
2019-05-17T17:13:47.569Z,17.43
2019-05-17T17:16:18.076Z,18.40
2019-05-17T17:18:48.875Z,18.13
2019-05-17T17:21:20.293Z,18.00
2019-05-17T17:23:50.875Z,18.80
2019-05-17T17:26:21.309Z,22.47
2019-05-17T17:28:51.716Z,19.23
2019-05-17T17:31:22.475Z,19.53
2019-05-17T17:33:52.888Z,43.97
2019-05-17T17:36:23.317Z,19.70
2019-05-17T17:38:53.712Z,22.90
2019-05-17T17:41:26.500Z,21.43
2019-05-17T17:43:58.896Z,20.47
2019-05-17T17:46:29.494Z,21.67
2019-05-17T17:48:59.933Z,22.33
2019-05-17T17:51:30.354Z,20.77
2019-05-17T17:54:00.853Z,22.20
2019-05-17T17:56:31.348Z,20.80
2019-05-17T17:59:01.859Z,23.93
2019-05-17T18:01:32.321Z,25.37
2019-05-17T18:04:02.766Z,20.70
2019-05-17T18:06:33.169Z,23.60
2019-05-17T18:09:06.765Z,25.90
2019-05-17T18:11:37.335Z,23.53
2019-05-17T18:14:13.168Z,25.87
2019-05-17T18:16:39.873Z,29.73
2019-05-17T18:19:10.328Z,25.13
2019-05-17T18:21:40.727Z,31.30
2019-05-17T18:24:11.165Z,25.17
2019-05-17T18:26:41.552Z,26.33
2019-05-17T18:29:11.991Z,28.17
2019-05-17T18:31:42.452Z,30.30
2019-05-17T18:34:12.901Z,29.13
2019-05-17T18:36:43.315Z,29.90
2019-05-17T18:39:13.832Z,30.83
2019-05-17T18:41:44.241Z,31.30
2019-05-17T18:44:27.247Z,34.97
2019-05-17T18:46:47.758Z,36.67
2019-05-17T18:49:18.210Z,34.00
2019-05-17T18:51:48.667Z,34.33
2019-05-17T18:54:20.120Z,97.17
2019-05-17T18:56:50.520Z,129.13
2019-05-17T18:59:20.954Z,89.47
2019-05-17T19:01:52.398Z,132.57
2019-05-17T19:04:23.837Z,91.67
2019-05-17T19:06:54.277Z,81.50
2019-05-17T19:09:24.704Z,71.80
2019-05-17T19:11:55.106Z,100.03
2019-05-17T19:14:25.554Z,108.47
2019-05-17T19:16:56.990Z,110.63
2019-05-17T19:19:27.435Z,118.50
2019-05-17T19:21:57.847Z,141.53
2019-05-17T19:24:28.282Z,112.77
2019-05-17T19:26:58.678Z,102.57
2019-05-17T19:29:29.154Z,85.33
2019-05-17T19:31:59.546Z,89.67
2019-05-17T19:34:30.542Z,88.50
2019-05-17T19:37:00.970Z,70.27
2019-05-17T19:39:31.487Z,67.53
2019-05-17T19:42:01.900Z,68.67
2019-05-17T19:44:32.451Z,74.10
2019-05-17T19:47:02.873Z,97.80
2019-05-17T19:49:33.667Z,87.50
2019-05-17T19:52:04.256Z,62.07
2019-05-17T19:54:34.821Z,83.83
2019-05-17T19:57:05.578Z,66.50
2019-05-17T19:59:36.046Z,56.57
2019-05-17T20:02:06.764Z,46.10
2019-05-17T20:04:37.442Z,44.43
2019-05-17T20:07:08.202Z,48.10
2019-05-17T20:09:38.773Z,51.73
2019-05-17T20:12:09.241Z,47.77
2019-05-17T20:14:39.735Z,48.80
2019-05-17T20:17:12.391Z,37.80
2019-05-17T20:19:42.285Z,35.23
2019-05-17T20:22:13.264Z,36.40
2019-05-17T20:24:43.815Z,39.37
2019-05-17T20:27:14.284Z,44.03
2019-05-17T20:29:44.750Z,51.93
2019-05-17T20:32:15.227Z,42.40
2019-05-17T20:34:45.691Z,68.43
2019-05-17T20:37:16.097Z,49.80
2019-05-17T20:39:46.652Z,43.90
2019-05-17T20:42:18.078Z,35.63
2019-05-17T20:44:48.602Z,40.93
2019-05-17T20:47:18.997Z,42.53
2019-05-17T20:49:50.588Z,65.87
2019-05-17T20:52:21.217Z,74.50
2019-05-17T20:54:51.955Z,67.83
2019-05-17T20:57:22.531Z,68.23
2019-05-17T20:59:53.019Z,85.10
2019-05-17T21:02:24.384Z,272.70
2019-05-17T21:04:54.837Z,81.70
2019-05-17T21:07:25.239Z,119.40
2019-05-17T21:09:55.689Z,83.50
2019-05-17T21:12:26.212Z,132.93
2019-05-17T21:14:56.857Z,94.60
2019-05-17T21:17:28.236Z,131.57
2019-05-17T21:19:58.691Z,87.23
2019-05-17T21:22:30.273Z,73.23
2019-05-17T21:25:00.737Z,57.23
2019-05-17T21:27:32.854Z,62.90
2019-05-17T21:30:03.490Z,69.77
2019-05-17T21:32:33.961Z,61.33
2019-05-17T21:35:06.636Z,78.00
2019-05-17T21:37:37.059Z,103.53
2019-05-17T21:40:10.801Z,83.40
2019-05-17T21:42:41.200Z,302.77
2019-05-17T21:45:11.893Z,138.60
2019-05-17T21:47:42.290Z,71.17
2019-05-17T21:50:13.000Z,126.03
2019-05-17T21:52:43.418Z,102.63
2019-05-17T21:55:16.139Z,89.20
2019-05-17T21:57:46.535Z,118.40
2019-05-17T22:00:50.253Z,76.07
2019-05-17T22:03:20.913Z,60.63
2019-05-17T22:05:51.432Z,65.43
2019-05-17T22:08:24.654Z,62.13
2019-05-17T22:10:55.088Z,64.50
2019-05-17T22:13:25.645Z,80.33
2019-05-17T22:15:56.092Z,79.80
2019-05-17T22:18:26.498Z,198.10
2019-05-17T22:20:58.006Z,72.27
2019-05-17T22:23:28.399Z,72.03
2019-05-17T22:25:58.922Z,130.03
2019-05-17T22:28:29.854Z,185.30
2019-05-17T22:31:00.364Z,65.87
2019-05-17T22:33:30.835Z,64.53
2019-05-17T22:36:01.294Z,100.73
2019-05-17T22:38:35.676Z,61.83
2019-05-17T22:41:06.112Z,61.87
2019-05-17T22:43:37.482Z,63.03
2019-05-17T22:46:07.996Z,68.90
2019-05-17T22:48:38.390Z,61.37
2019-05-17T22:51:08.831Z,60.63
2019-05-17T22:53:39.220Z,45.83
2019-05-17T22:56:09.652Z,50.30
2019-05-17T22:58:40.606Z,50.80
2019-05-17T23:01:11.052Z,59.23
2019-05-17T23:03:41.497Z,64.87
2019-05-17T23:06:12.008Z,81.07
2019-05-17T23:08:42.486Z,80.03
2019-05-17T23:11:12.951Z,169.40
2019-05-17T23:13:43.400Z,291.83
2019-05-17T23:16:14.289Z,371.80
2019-05-17T23:18:46.324Z,112.97
2019-05-17T23:21:17.044Z,120.37
2019-05-17T23:23:47.864Z,150.63
2019-05-17T23:26:18.350Z,154.73
2019-05-17T23:28:48.768Z,377.90
2019-05-17T23:31:19.211Z,395.73
2019-05-17T23:33:49.661Z,383.67
2019-05-17T23:36:20.097Z,131.20
2019-05-17T23:38:50.797Z,201.37
2019-05-17T23:41:21.205Z,165.67
2019-05-17T23:43:51.653Z,110.53
2019-05-17T23:46:22.135Z,181.70
2019-05-17T23:48:52.591Z,88.73
2019-05-17T23:51:23.965Z,143.03
2019-05-17T23:53:54.415Z,93.43
2019-05-17T23:56:24.810Z,164.53
2019-05-17T23:58:55.274Z,86.10
